Time;durP1;ratioP1;P1;durP2;ratioP2;P2;SDS_P1;SDS_P2;PMS_P1;PMS_P2;Temp;Humidity;BMP_temperature;BMP_pressure;BME280_temperature;BME280_humidity;BME280_pressure;Samples;Min_cycle;Max_cycle;Signal;HPM_P1;HPM_P2
2023/08/02 00:01:20;;;;;;;2.42;1.60;;;;;;;34.74;20.54;100816.59;4947029;28;20054;-78
2023/08/02 00:03:49;;;;;;;2.97;1.50;;;;;;;34.68;19.37;100808.09;4948516;28;20051;-79
2023/08/02 00:06:25;;;;;;;1.83;1.50;;;;;;;34.74;20.81;100813.91;4951972;28;20051;-77
2023/08/02 00:08:55;;;;;;;2.05;1.50;;;;;;;34.78;20.12;100811.88;4950632;28;20047;-76
2023/08/02 00:11:23;;;;;;;1.63;1.35;;;;;;;34.79;20.46;100810.88;4946641;28;20489;-79
2023/08/02 00:13:52;;;;;;;1.90;1.23;;;;;;;34.76;20.36;100806.59;4949621;28;20051;-80
2023/08/02 00:16:24;;;;;;;2.05;1.30;;;;;;;34.76;20.74;100811.97;4950098;28;20074;-80
2023/08/02 00:18:53;;;;;;;2.58;1.60;;;;;;;34.79;20.80;100808.19;4950242;28;20145;-79
2023/08/02 00:21:22;;;;;;;2.03;1.60;;;;;;;34.82;21.36;100800.78;4947884;28;20039;-77
2023/08/02 00:23:50;;;;;;;2.90;1.50;;;;;;;34.83;21.55;100801.63;4951120;28;20115;-76
2023/08/02 00:26:22;;;;;;;2.80;2.20;;;;;;;34.74;21.33;100791.53;4951375;28;20053;-78
2023/08/02 00:28:53;;;;;;;2.80;1.50;;;;;;;34.70;21.26;100792.72;4945710;28;20114;-78
2023/08/02 00:31:22;;;;;;;3.95;1.58;;;;;;;34.69;20.95;100794.56;4950386;28;20062;-77
2023/08/02 00:33:50;;;;;;;3.95;1.70;;;;;;;34.69;19.60;100788.34;4946886;28;20573;-84
2023/08/02 00:36:19;;;;;;;2.42;1.50;;;;;;;34.68;19.82;100787.44;4944950;28;20048;-79
2023/08/02 00:38:48;;;;;;;3.83;1.80;;;;;;;34.69;19.28;100783.81;4945060;28;20145;-81
2023/08/02 00:41:16;;;;;;;2.28;1.65;;;;;;;34.73;19.76;100784.47;4949806;28;20128;-80
2023/08/02 00:43:48;;;;;;;2.55;1.60;;;;;;;34.62;19.17;100779.84;4945581;28;20055;-77
2023/08/02 00:46:19;;;;;;;1.85;1.40;;;;;;;34.52;19.52;100782.31;4952368;28;20520;-78
2023/08/02 00:48:51;;;;;;;2.08;1.42;;;;;;;34.46;19.54;100785.41;4951755;28;20047;-79
2023/08/02 00:51:21;;;;;;;2.70;1.23;;;;;;;34.44;19.07;100784.66;4950359;28;20061;-82
2023/08/02 00:53:50;;;;;;;2.42;1.65;;;;;;;34.46;19.69;100787.25;4947006;28;20055;-82
2023/08/02 00:56:18;;;;;;;2.33;1.52;;;;;;;34.51;19.53;100782.41;4951706;28;20123;-79
2023/08/02 00:58:48;;;;;;;4.95;1.67;;;;;;;34.53;19.39;100777.78;4947843;28;20600;-77
2023/08/02 01:01:19;;;;;;;3.22;1.40;;;;;;;34.53;19.18;100777.78;4947608;28;20776;-81
2023/08/02 01:03:48;;;;;;;1.95;1.50;;;;;;;34.55;18.67;100773.16;4945550;28;20813;-83
2023/08/02 01:06:24;;;;;;;3.55;1.45;;;;;;;34.53;20.08;100767.03;4944037;28;20079;-78
2023/08/02 01:09:00;;;;;;;3.10;1.40;;;;;;;34.47;19.71;100775.53;4947388;28;20062;-78
2023/08/02 01:11:35;;;;;;;4.57;1.70;;;;;;;34.41;19.63;100776.81;4947019;28;20046;-79
2023/08/02 01:14:08;;;;;;;2.50;1.70;;;;;;;34.30;19.86;100777.56;4946245;28;20060;-79
2023/08/02 01:16:39;;;;;;;2.58;1.38;;;;;;;34.18;20.59;100775.75;4951175;28;20152;-78
2023/08/02 01:19:10;;;;;;;3.33;1.55;;;;;;;34.09;20.67;100777.22;4947743;28;20070;-79
2023/08/02 01:21:41;;;;;;;2.97;1.52;;;;;;;33.92;20.48;100767.63;4947224;28;20047;-78
2023/08/02 01:24:10;;;;;;;2.70;1.50;;;;;;;33.96;20.36;100779.00;4960142;28;20051;-81
2023/08/02 01:26:44;;;;;;;2.63;1.40;;;;;;;33.92;20.38;100767.63;4947035;28;20043;-79
2023/08/02 01:29:17;;;;;;;1.63;1.23;;;;;;;33.88;21.80;100771.50;4946657;28;20117;-82
2023/08/02 01:31:48;;;;;;;1.83;1.50;;;;;;;33.81;21.20;100770.16;4948139;28;20047;-86
2023/08/02 01:34:23;;;;;;;2.33;1.50;;;;;;;33.76;21.15;100773.16;4953859;28;20106;-84
2023/08/02 01:36:54;;;;;;;3.65;1.92;;;;;;;33.73;20.69;100762.66;4949851;28;20055;-84
2023/08/02 01:39:22;;;;;;;2.28;1.58;;;;;;;33.70;21.57;100767.38;4945855;28;20050;-82
2023/08/02 01:41:51;;;;;;;2.65;1.38;;;;;;;33.66;20.81;100766.72;4950936;28;20115;-81
2023/08/02 01:44:20;;;;;;;3.17;1.63;;;;;;;33.59;21.01;100771.63;4951377;28;20502;-81
2023/08/02 01:46:48;;;;;;;2.20;1.55;;;;;;;33.50;22.04;100780.25;4950289;28;20051;-79
2023/08/02 01:49:17;;;;;;;4.07;1.60;;;;;;;33.37;21.17;100777.50;4949090;28;20043;-78
2023/08/02 01:51:45;;;;;;;2.08;1.60;;;;;;;33.27;21.54;100781.78;4942721;28;20035;-77
2023/08/02 01:54:16;;;;;;;7.82;3.13;;;;;;;33.16;21.46;100787.81;4947560;28;20561;-86
2023/08/02 01:56:51;;;;;;;4.32;1.80;;;;;;;33.04;22.05;100783.25;4951823;28;20054;-79
2023/08/02 01:59:20;;;;;;;2.17;1.50;;;;;;;32.97;22.75;100792.63;4942478;28;20057;-79
2023/08/02 02:01:49;;;;;;;6.93;1.80;;;;;;;32.84;21.70;100783.66;4945446;28;20504;-83
2023/08/02 02:04:17;;;;;;;3.47;1.90;;;;;;;32.72;21.84;100779.94;4945716;28;20051;-79
2023/08/02 02:06:52;;;;;;;3.00;1.60;;;;;;;32.65;22.28;100789.31;4945924;28;20486;-78
2023/08/02 02:09:23;;;;;;;2.63;1.90;;;;;;;32.59;22.04;100782.50;4947438;28;20058;-79
2023/08/02 02:11:52;;;;;;;2.13;1.67;;;;;;;32.49;23.10;100779.50;4946475;28;20130;-78
2023/08/02 02:14:20;;;;;;;2.40;1.55;;;;;;;32.42;22.68;100791.56;4950631;28;20465;-78
2023/08/02 02:16:49;;;;;;;3.42;1.75;;;;;;;32.30;22.20;100782.47;4944807;28;20648;-79
2023/08/02 02:19:18;;;;;;;3.65;1.70;;;;;;;32.19;22.54;100787.63;4945882;28;20519;-79
2023/08/02 02:21:46;;;;;;;2.97;1.45;;;;;;;32.11;22.81;100795.25;4943518;28;20062;-78
2023/08/02 02:24:15;;;;;;;6.47;1.98;;;;;;;32.00;23.28;100797.69;4941235;28;20065;-79
2023/08/02 02:26:46;;;;;;;2.72;1.98;;;;;;;31.91;23.45;100802.63;4951543;28;20501;-78
2023/08/02 02:29:17;;;;;;;2.38;1.80;;;;;;;31.85;23.58;100800.31;4945252;28;20051;-81
2023/08/02 02:31:46;;;;;;;2.53;1.70;;;;;;;31.78;23.64;100801.63;4947352;28;20585;-81
2023/08/02 02:34:15;;;;;;;2.80;1.70;;;;;;;31.69;24.27;100803.00;4946388;28;20052;-78
2023/08/02 02:36:45;;;;;;;2.97;1.48;;;;;;;31.63;23.79;100807.84;4947437;28;20051;-76
2023/08/02 02:39:14;;;;;;;2.67;1.70;;;;;;;31.54;24.32;100801.22;4947802;28;20043;-77
2023/08/02 02:41:47;;;;;;;3.58;1.60;;;;;;;31.47;24.32;100808.75;4951191;28;20107;-79
2023/08/02 02:44:15;;;;;;;2.22;1.70;;;;;;;31.40;24.22;100804.66;4943924;28;20048;-79
2023/08/02 02:46:44;;;;;;;4.25;1.52;;;;;;;31.34;24.22;100809.47;4947860;28;20110;-77
2023/08/02 02:49:12;;;;;;;2.67;1.30;;;;;;;31.25;24.01;100813.56;4939425;28;20048;-80
2023/08/02 02:51:44;;;;;;;4.50;1.48;;;;;;;31.01;23.33;100803.28;4946812;28;20177;-77
2023/08/02 02:54:12;;;;;;;3.30;1.20;;;;;;;31.03;24.33;100819.22;4947045;28;20070;-78
2023/08/02 02:56:41;;;;;;;2.05;1.30;;;;;;;30.95;24.50;100817.00;4947630;28;20082;-80
2023/08/02 02:59:11;;;;;;;2.58;1.48;;;;;;;30.86;23.95;100815.66;4945129;28;20039;-78
2023/08/02 03:01:40;;;;;;;3.65;1.15;;;;;;;30.67;24.07;100804.22;4948980;28;20059;-78
2023/08/02 03:04:09;;;;;;;2.10;1.33;;;;;;;30.62;24.60;100822.28;4947669;28;20138;-78
2023/08/02 03:06:37;;;;;;;2.60;1.23;;;;;;;30.50;24.70;100831.81;4944410;28;20123;-77
2023/08/02 03:09:06;;;;;;;2.13;1.30;;;;;;;30.41;25.20;100829.63;4948874;28;20047;-77
2023/08/02 03:11:34;;;;;;;1.55;1.20;;;;;;;30.34;25.62;100833.56;4946983;28;20099;-80
2023/08/02 03:14:04;;;;;;;1.83;1.33;;;;;;;30.26;25.91;100826.84;4946521;28;20497;-78
2023/08/02 03:16:35;;;;;;;2.40;1.38;;;;;;;30.19;26.77;100829.84;4950573;28;20055;-79
2023/08/02 03:19:04;;;;;;;1.75;1.20;;;;;;;30.09;26.57;100832.13;4949855;28;20099;-79
2023/08/02 03:21:34;;;;;;;2.30;1.30;;;;;;;30.00;26.68;100825.44;4939446;28;20073;-79
2023/08/02 03:24:03;;;;;;;2.70;1.27;;;;;;;29.92;27.39;100833.00;4941667;28;20303;-78
2023/08/02 03:26:32;;;;;;;2.55;1.25;;;;;;;29.84;27.02;100832.50;4943101;28;20461;-76
2023/08/02 03:29:01;;;;;;;2.72;1.00;;;;;;;29.74;27.58;100828.56;4950862;28;20051;-77
2023/08/02 03:31:30;;;;;;;2.35;1.60;;;;;;;29.64;27.44;100833.44;4948560;28;20561;-76
2023/08/02 03:34:00;;;;;;;1.92;1.27;;;;;;;29.53;27.50;100833.13;4948512;28;20043;-77
2023/08/02 03:36:29;;;;;;;3.00;1.48;;;;;;;29.40;28.85;100841.69;4944747;28;20537;-78
2023/08/02 03:38:57;;;;;;;3.30;1.08;;;;;;;29.29;29.48;100844.00;4945839;28;20147;-78
2023/08/02 03:41:26;;;;;;;2.75;1.20;;;;;;;29.13;29.34;100846.53;4950379;28;20111;-76
2023/08/02 03:43:55;;;;;;;1.70;1.27;;;;;;;29.01;29.90;100845.25;4947113;28;20066;-76
2023/08/02 03:46:24;;;;;;;1.45;1.10;;;;;;;28.92;29.75;100856.34;4940332;28;20529;-77
2023/08/02 03:48:55;;;;;;;1.77;1.40;;;;;;;28.82;30.15;100844.38;4946153;28;20126;-76
2023/08/02 03:51:26;;;;;;;3.33;1.45;;;;;;;28.64;30.86;100855.88;4942620;28;20660;-79
2023/08/02 03:53:55;;;;;;;2.90;1.50;;;;;;;28.52;31.33;100858.13;4948512;28;20059;-80
2023/08/02 03:56:23;;;;;;;1.55;1.25;;;;;;;28.48;31.29;100867.16;4949759;28;20070;-79
2023/08/02 03:58:52;;;;;;;2.08;1.30;;;;;;;28.35;31.68;100857.94;4956414;28;20460;-78
2023/08/02 04:01:21;;;;;;;2.85;1.20;;;;;;;28.35;31.65;100873.91;4938402;28;20047;-78
2023/08/02 04:03:50;;;;;;;2.50;1.40;;;;;;;28.27;32.45;100870.72;4951111;28;20075;-78
2023/08/02 04:06:19;;;;;;;1.98;1.35;;;;;;;28.19;32.10;100869.22;4949512;28;20449;-77
2023/08/02 04:08:49;;;;;;;1.88;1.10;;;;;;;28.14;31.73;100881.88;4947531;28;20047;-78
2023/08/02 04:11:18;;;;;;;2.97;1.15;;;;;;;28.09;32.15;100897.16;4950311;28;20047;-79
2023/08/02 04:13:46;;;;;;;2.03;1.40;;;;;;;28.02;32.49;100893.03;4953713;28;20063;-77
2023/08/02 04:16:16;;;;;;;1.70;1.17;;;;;;;27.94;33.08;100897.78;4947602;28;20055;-80
2023/08/02 04:18:45;;;;;;;2.50;1.38;;;;;;;27.90;32.38;100901.50;4951807;28;20083;-79
2023/08/02 04:21:22;;;;;;;2.97;1.10;;;;;;;27.85;32.05;100904.34;4946279;28;20051;-78
2023/08/02 04:23:52;;;;;;;3.55;1.17;;;;;;;27.80;32.34;100900.97;4952067;28;20043;-83
2023/08/02 04:26:21;;;;;;;4.43;1.50;;;;;;;27.76;32.28;100910.88;4947513;28;20055;-80
2023/08/02 04:28:50;;;;;;;1.70;1.00;;;;;;;27.72;32.04;100909.25;4958346;28;20059;-83
2023/08/02 04:31:18;;;;;;;2.13;1.00;;;;;;;27.66;31.90;100919.25;4948843;28;20047;-79
2023/08/02 04:33:49;;;;;;;1.70;1.17;;;;;;;27.58;32.23;100922.22;4948611;28;20075;-78
2023/08/02 04:36:18;;;;;;;3.65;1.10;;;;;;;27.51;32.17;100916.28;4947353;28;20101;-83
2023/08/02 04:38:46;;;;;;;1.55;1.17;;;;;;;27.46;32.10;100920.03;4951833;28;20047;-79
2023/08/02 04:41:18;;;;;;;1.67;1.25;;;;;;;27.40;32.48;100922.91;4949209;28;20135;-78
2023/08/02 04:43:48;;;;;;;2.05;1.23;;;;;;;27.34;32.05;100924.88;4946676;28;20058;-78
2023/08/02 04:46:17;;;;;;;2.90;1.08;;;;;;;27.27;32.63;100931.34;4951842;28;20667;-79
2023/08/02 04:48:45;;;;;;;2.40;1.17;;;;;;;27.23;32.78;100932.38;4950180;28;20047;-77
2023/08/02 04:51:14;;;;;;;3.38;1.20;;;;;;;27.20;32.77;100937.81;4944941;28;20111;-79
2023/08/02 04:53:43;;;;;;;1.30;1.10;;;;;;;27.16;32.86;100946.78;4946166;28;20055;-79
2023/08/02 04:56:15;;;;;;;3.50;1.10;;;;;;;27.10;33.46;100947.03;4949390;28;20134;-79
2023/08/02 04:58:46;;;;;;;1.80;1.05;;;;;;;27.02;33.23;100947.28;4949962;28;20079;-78
2023/08/02 05:01:15;;;;;;;2.22;1.30;;;;;;;26.99;33.12;100943.88;4953770;28;20189;-79
2023/08/02 05:03:44;;;;;;;2.38;1.02;;;;;;;26.94;32.83;100944.06;4953362;28;20778;-79
2023/08/02 05:06:12;;;;;;;2.10;1.20;;;;;;;26.88;32.92;100947.78;4947163;28;20138;-78
2023/08/02 05:08:41;;;;;;;2.33;1.08;;;;;;;26.80;33.30;100947.19;4950170;28;20047;-79
2023/08/02 05:11:10;;;;;;;1.92;1.20;;;;;;;26.73;32.82;100943.00;4948464;28;20513;-78
2023/08/02 05:13:38;;;;;;;1.85;1.20;;;;;;;26.68;33.16;100942.28;4944976;28;20047;-80
2023/08/02 05:16:14;;;;;;;1.73;1.00;;;;;;;26.63;32.80;100941.59;4948481;28;20099;-78
2023/08/02 05:18:48;;;;;;;3.50;1.00;;;;;;;26.58;36.27;100938.25;4945662;28;20058;-76
2023/08/02 05:21:18;;;;;;;3.67;0.95;;;;;;;26.45;34.00;100949.22;4947275;28;20047;-77
2023/08/02 05:23:47;;;;;;;2.72;1.27;;;;;;;26.34;33.49;100943.41;4946251;28;20054;-76
2023/08/02 05:26:17;;;;;;;1.65;0.98;;;;;;;26.28;33.39;100935.66;4945835;28;20055;-77
2023/08/02 05:28:47;;;;;;;2.45;0.95;;;;;;;26.20;32.81;100943.00;4945455;28;20493;-78
2023/08/02 05:31:17;;;;;;;1.20;1.00;;;;;;;26.11;33.21;100950.34;4947375;28;20494;-77
2023/08/02 05:33:46;;;;;;;1.88;1.10;;;;;;;25.99;33.24;100961.31;4949939;28;20055;-77
2023/08/02 05:36:16;;;;;;;3.15;1.00;;;;;;;25.83;34.62;100949.44;4941931;28;20446;-79
2023/08/02 05:38:44;;;;;;;2.25;1.00;;;;;;;25.71;34.62;100951.53;4947038;28;20039;-77
2023/08/02 05:41:13;;;;;;;1.55;1.10;;;;;;;25.63;33.95;100950.91;4945107;28;20059;-78
2023/08/02 05:43:44;;;;;;;2.50;1.08;;;;;;;25.59;33.61;100957.22;4948114;28;20047;-77
2023/08/02 05:46:13;;;;;;;2.85;1.20;;;;;;;25.48;35.81;100956.66;4945628;28;20059;-76
2023/08/02 05:48:43;;;;;;;2.40;1.20;;;;;;;25.38;35.37;100956.06;4948852;28;20047;-77
2023/08/02 05:51:14;;;;;;;2.03;1.00;;;;;;;25.25;35.42;100963.47;4947883;28;20064;-76
2023/08/02 05:53:42;;;;;;;1.98;1.17;;;;;;;25.11;35.26;100955.03;4940301;28;20126;-75
2023/08/02 05:56:11;;;;;;;1.63;0.95;;;;;;;25.02;37.66;100960.56;4948002;28;20055;-75
2023/08/02 05:58:39;;;;;;;1.90;1.15;;;;;;;24.93;37.30;100961.69;4944440;28;20126;-75
2023/08/02 06:01:08;;;;;;;1.00;0.80;;;;;;;24.86;36.68;100955.69;4946045;28;20541;-75
2023/08/02 06:03:36;;;;;;;2.25;1.05;;;;;;;24.77;37.00;100957.72;4947690;28;20062;-76
2023/08/02 06:06:07;;;;;;;3.60;0.90;;;;;;;24.62;37.55;100966.91;4944786;28;20055;-75
2023/08/02 06:08:35;;;;;;;1.63;1.15;;;;;;;24.42;38.22;100959.44;4948524;28;20055;-75
2023/08/02 06:11:04;;;;;;;1.80;1.23;;;;;;;24.30;37.34;100960.59;4941184;28;20046;-79
2023/08/02 06:13:32;;;;;;;2.35;1.10;;;;;;;24.20;37.75;100956.44;4951798;28;20051;-77
2023/08/02 06:16:01;;;;;;;2.63;1.00;;;;;;;24.14;39.19;100969.81;4943617;28;20086;-76
2023/08/02 06:18:29;;;;;;;1.58;0.93;;;;;;;24.14;39.29;100967.16;4947350;28;20560;-75
2023/08/02 06:20:58;;;;;;;3.47;1.00;;;;;;;24.13;38.13;100968.94;4946024;28;20039;-76
2023/08/02 06:23:28;;;;;;;1.05;0.80;;;;;;;24.12;38.10;100966.31;4943762;28;20050;-75
2023/08/02 06:25:56;;;;;;;1.42;0.82;;;;;;;24.09;38.18;100966.41;4943353;28;20067;-77
2023/08/02 06:28:25;;;;;;;1.77;0.88;;;;;;;24.05;38.33;100965.59;4955334;28;20485;-75
2023/08/02 06:30:54;;;;;;;2.75;1.10;;;;;;;23.82;38.98;100966.09;4940768;28;20054;-76
2023/08/02 06:33:22;;;;;;;1.95;1.27;;;;;;;23.71;39.42;100962.78;4943876;28;20055;-75
2023/08/02 06:35:51;;;;;;;1.65;0.90;;;;;;;23.62;39.50;100962.09;4947121;28;20055;-75
2023/08/02 06:38:19;;;;;;;1.48;0.80;;;;;;;23.51;38.66;100964.09;4943399;28;20047;-74
2023/08/02 06:40:52;;;;;;;1.13;0.90;;;;;;;23.43;38.03;100966.03;4930849;28;20055;-75
2023/08/02 06:43:21;;;;;;;0.77;0.70;;;;;;;23.38;38.07;100965.25;4942894;28;20051;-73
2023/08/02 06:45:49;;;;;;;1.80;0.90;;;;;;;23.32;37.45;100963.63;4951246;28;20047;-73
2023/08/02 06:48:21;;;;;;;1.35;0.90;;;;;;;23.32;37.63;100962.72;4948152;28;20048;-74
2023/08/02 06:50:50;;;;;;;2.08;0.90;;;;;;;23.28;37.56;100956.66;4944268;28;20047;-74
2023/08/02 06:53:19;;;;;;;1.52;0.88;;;;;;;23.30;37.68;100959.28;4947449;28;20047;-75
2023/08/02 06:55:49;;;;;;;1.90;1.10;;;;;;;23.31;37.26;100956.59;4948546;28;20051;-75
2023/08/02 06:58:17;;;;;;;2.15;1.05;;;;;;;23.32;36.80;100960.09;4941953;28;20056;-74
2023/08/02 07:00:46;;;;;;;1.10;0.70;;;;;;;23.33;36.82;100959.19;4945555;28;20114;-74
2023/08/02 07:03:17;;;;;;;2.13;0.80;;;;;;;23.31;36.68;100955.72;4944697;28;20062;-75
2023/08/02 07:05:47;;;;;;;1.27;0.80;;;;;;;23.28;36.86;100956.66;4951706;28;20055;-75
2023/08/02 07:08:22;;;;;;;2.00;1.08;;;;;;;23.23;37.34;100950.59;4952113;28;20053;-75
2023/08/02 07:10:58;;;;;;;1.63;1.00;;;;;;;23.19;36.94;100952.41;4949978;28;20051;-74
2023/08/02 07:13:26;;;;;;;2.55;1.10;;;;;;;23.17;35.84;100945.44;4941154;28;20058;-75
2023/08/02 07:15:55;;;;;;;1.40;0.93;;;;;;;23.17;36.07;100938.38;4943658;28;20047;-74
2023/08/02 07:18:23;;;;;;;1.65;0.88;;;;;;;23.16;36.12;100954.28;4957035;28;20758;-75
2023/08/02 07:20:52;;;;;;;1.65;1.05;;;;;;;23.18;35.89;100947.16;4951799;28;20059;-77
2023/08/02 07:23:24;;;;;;;1.20;1.00;;;;;;;23.17;35.36;100958.63;4949886;28;20498;-76
2023/08/02 07:25:54;;;;;;;2.65;0.90;;;;;;;23.16;36.02;100963.06;4940235;28;20055;-75
2023/08/02 07:28:23;;;;;;;2.10;1.10;;;;;;;23.14;35.89;100954.28;4949427;28;20107;-75
2023/08/02 07:30:52;;;;;;;1.25;0.85;;;;;;;23.12;36.16;100953.44;4949462;28;20692;-75
2023/08/02 07:33:23;;;;;;;0.95;0.77;;;;;;;23.08;36.05;100950.88;4946402;28;20476;-76
2023/08/02 07:35:51;;;;;;;1.05;0.70;;;;;;;23.04;35.50;100955.34;4949253;28;20059;-74
2023/08/02 07:38:20;;;;;;;1.05;0.80;;;;;;;23.03;35.55;100958.03;4953876;28;20046;-75
2023/08/02 07:40:48;;;;;;;2.10;1.00;;;;;;;23.01;35.20;100958.06;4950522;28;20048;-74
2023/08/02 07:43:18;;;;;;;1.58;1.10;;;;;;;22.98;35.52;100963.38;4949731;28;20111;-76
2023/08/02 07:45:47;;;;;;;1.48;0.93;;;;;;;22.97;35.35;100956.31;4947592;28;20132;-73
2023/08/02 07:48:16;;;;;;;2.03;0.93;;;;;;;22.95;35.06;100959.03;4949737;28;20051;-74
2023/08/02 07:50:44;;;;;;;1.77;0.80;;;;;;;22.94;35.20;100959.91;4946788;28;20102;-74
2023/08/02 07:53:13;;;;;;;1.33;0.90;;;;;;;22.92;34.98;100959.06;4950125;28;20074;-75
2023/08/02 07:55:43;;;;;;;1.48;0.98;;;;;;;22.92;35.02;100966.97;4948674;28;20047;-76
2023/08/02 07:58:12;;;;;;;1.63;1.00;;;;;;;22.89;35.02;100963.53;4947466;28;20589;-75
2023/08/02 08:00:42;;;;;;;2.50;0.85;;;;;;;22.85;34.68;100961.84;4938948;28;20046;-75
2023/08/02 08:03:11;;;;;;;2.33;0.85;;;;;;;22.83;34.56;100963.63;4950166;28;20099;-74
2023/08/02 08:05:41;;;;;;;2.00;0.93;;;;;;;22.84;34.34;100965.34;4950147;28;20066;-75
2023/08/02 08:08:10;;;;;;;1.30;0.90;;;;;;;22.83;35.12;100963.63;4950995;28;20119;-75
2023/08/02 08:10:38;;;;;;;1.80;1.05;;;;;;;22.82;34.82;100967.19;4945369;28;20051;-75
2023/08/02 08:13:07;;;;;;;1.45;0.80;;;;;;;22.78;35.35;100961.06;4947576;28;20094;-77
2023/08/02 08:15:36;;;;;;;1.27;0.80;;;;;;;22.74;35.29;100970.81;4944275;28;20557;-75
2023/08/02 08:18:07;;;;;;;1.67;0.70;;;;;;;22.72;34.87;100977.91;4950534;28;20051;-75
2023/08/02 08:20:35;;;;;;;1.33;1.00;;;;;;;22.72;35.61;100975.25;4946606;28;20114;-75
2023/08/02 08:23:04;;;;;;;2.50;0.80;;;;;;;22.69;35.52;100977.94;4945245;28;20052;-75
2023/08/02 08:25:33;;;;;;;1.30;0.98;;;;;;;22.66;35.81;100979.78;4946379;28;20110;-76
2023/08/02 08:28:02;;;;;;;1.05;0.80;;;;;;;22.62;35.50;100976.28;4950047;28;20051;-75
2023/08/02 08:30:30;;;;;;;3.28;0.88;;;;;;;22.57;35.52;100980.78;4950065;28;20054;-76
2023/08/02 08:32:59;;;;;;;1.08;0.88;;;;;;;22.51;35.20;100988.78;4947138;28;20047;-76
2023/08/02 08:35:29;;;;;;;1.58;1.00;;;;;;;22.44;35.52;100977.47;4951457;28;20055;-75
2023/08/02 08:37:58;;;;;;;1.60;1.10;;;;;;;22.36;35.82;100976.72;4940591;28;20083;-74
2023/08/02 08:40:27;;;;;;;1.65;1.00;;;;;;;22.19;36.46;100976.94;4946550;28;20043;-74
2023/08/02 08:42:57;;;;;;;1.60;0.80;;;;;;;22.11;36.44;100978.84;4950096;28;20054;-74
2023/08/02 08:45:27;;;;;;;1.35;0.90;;;;;;;22.01;36.61;100971.94;4946684;28;20051;-75
2023/08/02 08:47:55;;;;;;;1.30;0.90;;;;;;;21.91;37.01;100982.59;4945114;28;20051;-75
2023/08/02 08:50:34;;;;;;;2.65;1.10;;;;;;;21.87;37.38;100975.63;4947705;28;20504;-75
2023/08/02 08:53:06;;;;;;;1.52;1.00;;;;;;;21.84;37.06;100978.31;4949037;28;20205;-75
2023/08/02 08:55:36;;;;;;;1.52;1.00;;;;;;;21.78;37.57;100973.13;4947106;28;20146;-77
2023/08/02 08:58:05;;;;;;;1.02;0.88;;;;;;;21.75;37.81;100975.81;4946342;28;20103;-76
2023/08/02 09:00:36;;;;;;;2.53;1.27;;;;;;;21.67;38.19;100980.28;4948307;28;20044;-76
2023/08/02 09:03:14;;;;;;;1.70;1.10;;;;;;;21.63;39.00;100983.88;4946847;28;20059;-75
2023/08/02 09:05:45;;;;;;;2.13;1.00;;;;;;;21.57;38.90;100987.44;4945154;28;20052;-77
2023/08/02 09:08:14;;;;;;;2.88;1.20;;;;;;;21.48;40.21;100980.53;4949092;28;20059;-76
2023/08/02 09:10:45;;;;;;;1.17;0.95;;;;;;;21.39;40.10;100983.22;4942657;28;20565;-76
2023/08/02 09:13:23;;;;;;;1.87;1.33;;;;;;;21.29;40.56;100981.59;4948487;28;20146;-76
2023/08/02 09:16:09;;;;;;;4.13;1.17;;;;;;;21.20;42.24;100989.59;4949784;28;20493;-74
2023/08/02 09:18:40;;;;;;;2.22;1.25;;;;;;;21.10;42.92;100986.19;4948269;28;20044;-74
2023/08/02 09:21:12;;;;;;;1.88;1.10;;;;;;;20.98;44.43;100981.03;4946741;28;20057;-75
2023/08/02 09:23:40;;;;;;;3.35;1.30;;;;;;;20.86;45.45;100982.91;4950775;28;20248;-76
2023/08/02 09:26:13;;;;;;;3.70;1.10;;;;;;;20.77;46.38;100982.13;4953478;28;20051;-75
2023/08/02 09:28:43;;;;;;;2.92;1.15;;;;;;;20.74;46.55;100985.66;4953491;28;20104;-74
2023/08/02 09:31:18;;;;;;;2.22;1.05;;;;;;;20.73;46.99;100977.78;4949094;28;20118;-74
2023/08/02 09:33:51;;;;;;;1.75;1.05;;;;;;;20.70;46.73;100986.56;4946251;28;20043;-75
2023/08/02 09:36:29;;;;;;;2.85;1.10;;;;;;;20.70;46.76;100987.44;4945674;28;20056;-74
2023/08/02 09:39:01;;;;;;;1.73;1.08;;;;;;;20.73;46.60;100986.56;4946278;28;20063;-76
2023/08/02 09:41:33;;;;;;;2.78;1.10;;;;;;;20.75;46.64;100990.00;4945618;28;20055;-77
2023/08/02 09:44:02;;;;;;;2.35;1.65;;;;;;;20.72;47.07;100992.69;4942752;28;20055;-76
2023/08/02 09:46:33;;;;;;;2.67;1.17;;;;;;;20.61;47.92;100992.75;4948195;28;20055;-75
2023/08/02 09:49:03;;;;;;;3.80;1.30;;;;;;;20.47;48.46;100989.34;4951327;28;20134;-76
2023/08/02 09:51:45;;;;;;;2.20;1.13;;;;;;;20.40;48.86;100987.66;4947609;28;20157;-75
2023/08/02 09:54:15;;;;;;;4.13;1.30;;;;;;;20.30;48.51;100981.59;4943955;28;20047;-77
2023/08/02 09:56:44;;;;;;;2.45;1.08;;;;;;;20.33;48.95;100993.84;4945289;28;20059;-75
2023/08/02 09:59:15;;;;;;;3.35;1.02;;;;;;;20.29;48.65;100995.59;4947223;28;20047;-76
2023/08/02 10:01:48;;;;;;;5.68;1.45;;;;;;;20.17;49.02;100980.78;4947558;28;20047;-75
2023/08/02 10:04:17;;;;;;;2.50;1.00;;;;;;;20.14;49.47;100991.34;4944270;28;20058;-73
2023/08/02 10:06:52;;;;;;;3.05;1.48;;;;;;;20.06;49.62;100998.38;4945714;28;20047;-75
2023/08/02 10:09:22;;;;;;;1.95;1.00;;;;;;;19.98;50.39;101002.81;4945698;28;20083;-76
2023/08/02 10:11:55;;;;;;;1.55;1.00;;;;;;;19.87;50.31;100995.84;4947110;28;20081;-76
2023/08/02 10:14:24;;;;;;;5.95;1.27;;;;;;;19.84;50.52;101009.00;4949781;28;20083;-75
2023/08/02 10:16:54;;;;;;;1.80;1.10;;;;;;;19.83;51.01;101012.50;4953719;28;20055;-74
2023/08/02 10:19:23;;;;;;;5.00;1.00;;;;;;;19.81;51.10;101008.13;4953500;28;20047;-75
2023/08/02 10:21:54;;;;;;;2.45;1.20;;;;;;;19.77;51.28;101015.16;4948511;28;20055;-75
2023/08/02 10:24:26;;;;;;;1.95;1.00;;;;;;;19.74;51.44;101007.28;4949634;28;20469;-74
2023/08/02 10:26:55;;;;;;;;;;;;;;;19.70;51.67;101008.19;4947675;28;20158;-75
2023/08/02 10:29:25;;;;;;;2.03;1.10;;;;;;;19.66;51.61;101014.28;4946840;28;20630;-74
2023/08/02 10:31:54;;;;;;;1.80;1.00;;;;;;;19.61;52.29;101010.81;4944084;28;20515;-75
2023/08/02 10:34:48;;;;;;;1.98;1.05;;;;;;;19.54;52.61;101009.97;4943333;28;20051;-75
2023/08/02 10:37:19;;;;;;;3.83;1.60;;;;;;;19.50;52.65;101012.63;4947168;28;20106;-74
2023/08/02 10:39:58;;;;;;;6.50;1.00;;;;;;;19.42;53.21;101010.88;4953194;28;20058;-74
2023/08/02 10:42:29;;;;;;;4.35;1.17;;;;;;;19.38;53.60;101013.53;4955407;28;20054;-75
2023/08/02 10:45:18;;;;;;;2.63;1.15;;;;;;;19.29;53.37;101008.25;4957502;28;20061;-73
2023/08/02 10:47:47;;;;;;;2.17;1.27;;;;;;;19.23;54.32;101011.78;4950179;28;20056;-75
2023/08/02 10:50:48;;;;;;;3.30;1.13;;;;;;;19.19;54.60;101010.03;4954115;28;20051;-73
2023/08/02 10:53:18;;;;;;;4.25;1.38;;;;;;;19.09;55.07;101008.34;4953671;28;20043;-74
2023/08/02 10:56:09;;;;;;;3.00;1.10;;;;;;;19.02;55.21;101016.19;4949341;28;20040;-74
2023/08/02 10:58:51;;;;;;;2.30;1.08;;;;;;;18.95;55.73;101011.84;4953234;28;20059;-74
2023/08/02 11:01:20;;;;;;;2.00;1.17;;;;;;;18.86;55.11;101017.09;4951614;28;20055;-75
2023/08/02 11:03:48;;;;;;;1.92;1.00;;;;;;;18.81;54.22;101010.97;4954172;28;20398;-76
2023/08/02 11:06:33;;;;;;;3.40;1.25;;;;;;;18.74;53.78;101024.94;4953654;28;20073;-74
2023/08/02 11:09:03;;;;;;;1.50;1.00;;;;;;;18.70;53.86;101020.56;4953580;28;20106;-74
2023/08/02 11:11:36;;;;;;;1.50;1.20;;;;;;;18.66;53.93;101029.28;4952211;29;20051;-75
2023/08/02 11:14:05;;;;;;;3.53;1.10;;;;;;;18.60;53.86;101019.69;4960958;28;20051;-74
2023/08/02 11:16:41;;;;;;;4.38;1.02;;;;;;;18.54;53.30;101017.91;4951974;28;20118;-75
2023/08/02 11:19:13;;;;;;;1.60;0.90;;;;;;;18.50;53.23;101021.41;4953380;28;20523;-76
2023/08/02 11:21:53;;;;;;;1.35;0.90;;;;;;;18.45;53.17;101023.16;4950224;28;20055;-75
2023/08/02 11:24:23;;;;;;;2.25;0.73;;;;;;;18.40;52.77;101019.66;4951940;28;20044;-75
2023/08/02 11:26:55;;;;;;;1.88;0.93;;;;;;;18.38;52.94;101024.00;4951257;28;20150;-75
2023/08/02 11:29:24;;;;;;;1.73;1.13;;;;;;;18.33;52.13;101020.53;4952909;28;20626;-75
2023/08/02 11:31:58;;;;;;;1.70;0.98;;;;;;;18.27;52.72;101017.88;4952341;28;20055;-76
2023/08/02 11:34:27;;;;;;;1.38;0.88;;;;;;;18.21;52.64;101018.75;4950995;28;20558;-73
2023/08/02 11:36:57;;;;;;;1.40;0.70;;;;;;;18.14;52.37;101015.25;4948107;28;20055;-75
2023/08/02 11:39:27;;;;;;;1.67;0.80;;;;;;;18.13;52.42;101028.31;4949774;28;20047;-75